createdAt,value
2019-05-30T00:01:30.111Z,1.00
2019-05-30T00:06:35.018Z,0.90
2019-05-30T00:11:39.997Z,1.10
2019-05-30T00:16:45.154Z,0.90
2019-05-30T00:21:50.153Z,0.93
2019-05-30T00:26:56.248Z,1.00
2019-05-30T00:32:01.659Z,0.97
2019-05-30T00:37:06.634Z,0.90
2019-05-30T00:42:12.181Z,0.73
2019-05-30T00:47:17.398Z,0.93
2019-05-30T00:52:22.779Z,0.80
2019-05-30T00:57:28.076Z,0.90
2019-05-30T01:02:33.601Z,0.90
2019-05-30T01:07:38.610Z,0.87
2019-05-30T01:12:43.905Z,0.90
2019-05-30T01:17:49.078Z,0.83
2019-05-30T01:22:54.397Z,0.83
2019-05-30T01:27:59.521Z,0.80
2019-05-30T01:33:05.894Z,0.80
2019-05-30T01:38:11.097Z,0.80
2019-05-30T01:43:16.175Z,0.80
2019-05-30T01:48:21.718Z,0.73
2019-05-30T01:53:26.718Z,0.63
2019-05-30T01:58:32.230Z,0.77
2019-05-30T02:03:37.287Z,0.80
2019-05-30T02:08:42.269Z,0.70
2019-05-30T02:13:48.013Z,0.80
2019-05-30T02:18:53.783Z,1.00
2019-05-30T02:23:59.791Z,0.80
2019-05-30T02:29:04.849Z,0.80
2019-05-30T02:34:12.162Z,0.83
2019-05-30T02:39:17.260Z,0.90
2019-05-30T02:44:22.554Z,0.83
2019-05-30T02:49:28.693Z,0.80
2019-05-30T02:54:33.627Z,0.80
2019-05-30T02:59:38.642Z,0.80
2019-05-30T03:04:43.960Z,0.70
2019-05-30T03:09:49.410Z,0.77
2019-05-30T03:14:54.787Z,1.03
2019-05-30T03:20:05.029Z,0.67
2019-05-30T03:25:10.509Z,0.60
2019-05-30T03:30:25.575Z,0.70
2019-05-30T03:35:29.471Z,0.70
2019-05-30T03:40:30.249Z,0.73
2019-05-30T03:45:37.984Z,0.60
2019-05-30T03:50:46.282Z,0.70
2019-05-30T03:55:56.616Z,0.80
2019-05-30T04:01:05.893Z,0.80
2019-05-30T04:06:22.625Z,0.70
2019-05-30T04:11:38.278Z,0.90
2019-05-30T04:16:43.246Z,0.80
2019-05-30T04:21:48.223Z,0.90
2019-05-30T04:26:53.582Z,1.23
2019-05-30T04:31:58.971Z,0.93
2019-05-30T04:37:04.030Z,1.20
2019-05-30T04:42:09.360Z,1.17
2019-05-30T04:47:16.003Z,0.80
2019-05-30T04:52:24.593Z,1.17
2019-05-30T04:57:28.511Z,0.80
2019-05-30T05:02:33.409Z,0.93
2019-05-30T05:07:38.599Z,1.20
2019-05-30T05:12:43.575Z,1.30
2019-05-30T05:17:48.625Z,1.10
2019-05-30T05:22:54.021Z,1.13
2019-05-30T05:27:59.189Z,0.70
2019-05-30T05:33:04.164Z,1.03
2019-05-30T05:38:09.830Z,1.20
2019-05-30T05:43:16.559Z,1.07
2019-05-30T05:48:22.607Z,1.13
2019-05-30T05:53:28.867Z,1.17
2019-05-30T05:58:34.490Z,1.00
2019-05-30T06:03:39.414Z,0.80
2019-05-30T06:08:44.465Z,1.33
2019-05-30T06:13:49.722Z,1.40
2019-05-30T06:18:55.333Z,1.03
2019-05-30T06:24:00.262Z,1.03
2019-05-30T06:29:05.506Z,1.03
2019-05-30T06:34:10.445Z,1.23
2019-05-30T06:39:15.357Z,0.70
2019-05-30T06:44:21.781Z,0.90
2019-05-30T06:49:27.074Z,1.00
2019-05-30T06:54:33.715Z,1.10
2019-05-30T06:59:39.166Z,1.30
2019-05-30T07:04:51.762Z,1.00
2019-05-30T07:09:52.421Z,0.80
2019-05-30T07:14:57.554Z,1.23
2019-05-30T07:20:02.666Z,1.13
2019-05-30T07:25:08.678Z,0.87
2019-05-30T07:30:15.065Z,0.87
2019-05-30T07:35:20.096Z,0.80
2019-05-30T07:40:26.485Z,0.63
2019-05-30T07:45:33.040Z,0.47
2019-05-30T07:50:38.830Z,0.70
2019-05-30T07:55:44.613Z,1.20
2019-05-30T08:00:50.462Z,0.70
2019-05-30T08:05:56.088Z,0.80
2019-05-30T08:11:09.414Z,0.97
2019-05-30T08:16:08.670Z,0.90
2019-05-30T08:21:13.858Z,0.70
2019-05-30T08:26:19.366Z,0.90
2019-05-30T08:31:24.684Z,0.70
2019-05-30T08:36:30.834Z,0.73
2019-05-30T08:41:37.284Z,0.90
2019-05-30T08:46:42.986Z,1.17
2019-05-30T08:51:48.406Z,1.10
2019-05-30T08:56:53.714Z,1.00
2019-05-30T09:01:58.934Z,1.17
2019-05-30T09:07:04.343Z,1.30
2019-05-30T09:12:10.319Z,1.07
2019-05-30T09:17:15.862Z,1.30
2019-05-30T09:22:20.845Z,0.77
2019-05-30T09:27:25.868Z,1.30
2019-05-30T09:32:31.611Z,1.00
2019-05-30T09:37:36.919Z,0.70
2019-05-30T09:42:44.125Z,0.97
2019-05-30T09:47:49.305Z,1.30
2019-05-30T09:52:54.849Z,0.90
2019-05-30T09:58:00.410Z,1.00
2019-05-30T10:03:06.238Z,1.30
2019-05-30T10:08:11.304Z,1.17
2019-05-30T10:13:16.434Z,1.27
2019-05-30T10:18:21.432Z,0.97
2019-05-30T10:23:26.687Z,1.17
2019-05-30T10:28:31.944Z,1.20
2019-05-30T10:33:37.519Z,1.30
2019-05-30T10:38:42.438Z,1.10
2019-05-30T10:43:49.084Z,1.00
2019-05-30T10:48:54.759Z,1.13
2019-05-30T10:53:59.894Z,1.00
2019-05-30T10:59:05.434Z,0.93
2019-05-30T11:04:11.050Z,1.47
2019-05-30T11:09:19.266Z,0.83
2019-05-30T11:14:24.877Z,0.93
2019-05-30T11:19:30.227Z,1.20
2019-05-30T11:24:35.223Z,1.27
2019-05-30T11:29:40.470Z,1.10
2019-05-30T11:34:45.656Z,1.20
2019-05-30T11:39:51.104Z,1.00
2019-05-30T11:44:57.356Z,0.77
2019-05-30T11:50:04.986Z,1.00
2019-05-30T11:55:10.529Z,1.00
2019-05-30T12:00:16.765Z,1.50
2019-05-30T12:05:24.806Z,1.30
2019-05-30T12:10:30.547Z,1.40
2019-05-30T12:15:35.798Z,1.20
2019-05-30T12:20:41.691Z,1.30
2019-05-30T12:25:48.591Z,1.10
2019-05-30T12:30:58.277Z,1.50
2019-05-30T12:36:01.108Z,1.23
2019-05-30T12:41:06.110Z,1.20
2019-05-30T12:46:11.069Z,1.50
2019-05-30T12:51:16.041Z,1.40
2019-05-30T12:56:20.950Z,1.07
2019-05-30T13:01:27.478Z,1.20
2019-05-30T13:06:32.902Z,1.33
2019-05-30T13:11:38.319Z,1.70
2019-05-30T13:16:43.502Z,1.70
2019-05-30T13:21:48.819Z,1.90
2019-05-30T13:26:55.524Z,1.10
2019-05-30T13:32:00.945Z,1.67
2019-05-30T13:37:07.075Z,1.70
2019-05-30T13:42:12.456Z,1.70
2019-05-30T13:47:17.382Z,1.90
2019-05-30T13:52:22.454Z,1.80
2019-05-30T13:57:27.735Z,2.30
2019-05-30T14:02:33.089Z,2.33
2019-05-30T14:07:38.393Z,1.27
2019-05-30T14:12:43.553Z,1.50
2019-05-30T14:17:49.561Z,1.53
2019-05-30T14:22:55.028Z,1.83
2019-05-30T14:28:00.009Z,1.40
2019-05-30T14:33:06.080Z,1.30
2019-05-30T14:38:11.179Z,1.30
2019-05-30T14:43:16.149Z,1.90
2019-05-30T14:48:21.380Z,1.73
2019-05-30T14:53:26.637Z,2.00
2019-05-30T14:58:31.597Z,1.30
2019-05-30T15:03:36.597Z,1.30
2019-05-30T15:08:41.703Z,2.03
2019-05-30T15:13:46.751Z,1.30
2019-05-30T15:18:51.902Z,1.23
2019-05-30T15:23:57.013Z,1.30
2019-05-30T15:29:02.429Z,1.67
2019-05-30T15:34:08.399Z,1.60
2019-05-30T15:39:13.582Z,1.30
2019-05-30T15:44:19.321Z,1.70
2019-05-30T15:49:24.690Z,1.90
2019-05-30T15:54:29.766Z,2.00
2019-05-30T15:59:34.861Z,1.90
2019-05-30T16:04:40.130Z,2.00
2019-05-30T16:09:47.363Z,2.10
2019-05-30T16:14:52.437Z,1.80
2019-05-30T16:19:57.898Z,1.60
2019-05-30T16:25:03.327Z,1.10
2019-05-30T16:30:10.002Z,1.03
2019-05-30T16:35:16.002Z,1.30
2019-05-30T16:40:22.308Z,1.00
2019-05-30T16:45:27.513Z,1.03
2019-05-30T16:50:32.493Z,1.37
2019-05-30T16:55:37.512Z,1.33
2019-05-30T17:00:44.096Z,1.07
2019-05-30T17:05:49.751Z,1.47
2019-05-30T17:10:55.963Z,1.33
2019-05-30T17:16:01.033Z,1.17
2019-05-30T17:21:07.056Z,1.00
2019-05-30T17:26:12.333Z,1.10
2019-05-30T17:31:17.687Z,1.27
2019-05-30T17:36:24.201Z,1.20
2019-05-30T17:41:29.457Z,0.93
2019-05-30T17:46:34.890Z,1.00
2019-05-30T17:51:39.936Z,0.97
2019-05-30T17:56:45.418Z,1.10
2019-05-30T18:01:50.361Z,1.00
2019-05-30T18:06:55.925Z,1.00
2019-05-30T18:12:01.342Z,1.20
2019-05-30T18:17:09.288Z,1.00
2019-05-30T18:22:12.945Z,1.60
2019-05-30T18:27:18.434Z,1.30
2019-05-30T18:32:24.101Z,1.10
2019-05-30T18:37:30.503Z,1.17
2019-05-30T18:42:35.927Z,1.00
2019-05-30T18:47:41.155Z,1.17
2019-05-30T18:52:46.407Z,1.00
2019-05-30T18:57:51.841Z,1.30
2019-05-30T19:02:56.841Z,1.07
2019-05-30T19:08:02.057Z,1.17
2019-05-30T19:13:07.249Z,1.50
2019-05-30T19:18:12.221Z,1.70
2019-05-30T19:23:17.225Z,1.33
2019-05-30T19:28:22.449Z,1.40
2019-05-30T19:33:28.812Z,1.60
2019-05-30T19:38:33.895Z,1.50
2019-05-30T19:43:38.882Z,1.30
2019-05-30T19:48:44.202Z,1.43
2019-05-30T19:53:49.208Z,1.70
2019-05-30T19:58:54.071Z,1.67
2019-05-30T20:03:59.786Z,1.60
2019-05-30T20:09:07.241Z,1.53
2019-05-30T20:14:12.571Z,1.70
2019-05-30T20:19:17.867Z,1.37
2019-05-30T20:24:23.007Z,1.60
2019-05-30T20:29:28.498Z,1.33
2019-05-30T20:34:34.740Z,1.37
2019-05-30T20:39:40.821Z,1.60
2019-05-30T20:44:47.197Z,1.47
2019-05-30T20:49:52.205Z,1.57
2019-05-30T20:54:57.141Z,1.40
2019-05-30T21:00:02.873Z,1.23
2019-05-30T21:05:08.179Z,2.70
2019-05-30T21:10:14.122Z,1.90
2019-05-30T21:15:19.460Z,1.43
2019-05-30T21:20:24.545Z,1.40
2019-05-30T21:25:29.522Z,1.30
2019-05-30T21:30:34.506Z,1.50
2019-05-30T21:35:39.873Z,1.23
2019-05-30T21:40:46.554Z,1.60
2019-05-30T21:45:51.899Z,1.97
2019-05-30T21:50:57.169Z,1.67
2019-05-30T21:56:02.739Z,1.63
2019-05-30T22:01:34.009Z,1.80
2019-05-30T22:06:39.009Z,1.97
2019-05-30T22:11:45.595Z,2.20
2019-05-30T22:16:52.248Z,1.40
2019-05-30T22:21:57.405Z,1.77
2019-05-30T22:27:02.968Z,1.70
2019-05-30T22:32:11.212Z,1.90
2019-05-30T22:37:17.109Z,1.77
2019-05-30T22:42:22.357Z,1.97
2019-05-30T22:47:27.630Z,2.27
2019-05-30T22:52:32.795Z,1.70
2019-05-30T22:57:37.743Z,1.70
2019-05-30T23:02:43.001Z,1.90
2019-05-30T23:07:49.315Z,2.30
2019-05-30T23:12:55.967Z,2.27
2019-05-30T23:18:01.241Z,2.37
2019-05-30T23:23:06.141Z,2.17
2019-05-30T23:28:11.117Z,2.10
2019-05-30T23:33:16.310Z,2.37
2019-05-30T23:38:21.218Z,2.77
2019-05-30T23:43:26.142Z,1.73
2019-05-30T23:48:31.230Z,1.93
2019-05-30T23:53:36.151Z,1.97
2019-05-30T23:58:40.993Z,1.87
